sensor_id;sensor_type;location;lat;lon;timestamp;P1;durP1;ratioP1;P2;durP2;ratioP2
30466;SDS011;17258;52.560;13.046;2023-05-15T00:06:10;3.58;;;3.28;;
30466;SDS011;17258;52.560;13.046;2023-05-15T00:16:11;3.53;;;3.23;;
30466;SDS011;17258;52.560;13.046;2023-05-15T00:26:11;3.60;;;3.00;;
30466;SDS011;17258;52.560;13.046;2023-05-15T00:36:14;4.88;;;3.22;;
30466;SDS011;17258;52.560;13.046;2023-05-15T00:46:16;4.47;;;2.70;;
30466;SDS011;17258;52.560;13.046;2023-05-15T00:56:19;2.53;;;2.33;;
30466;SDS011;17258;52.560;13.046;2023-05-15T01:06:20;3.17;;;2.60;;
30466;SDS011;17258;52.560;13.046;2023-05-15T01:16:21;3.37;;;2.73;;
30466;SDS011;17258;52.560;13.046;2023-05-15T01:37:25;3.92;;;3.22;;
30466;SDS011;17258;52.560;13.046;2023-05-15T01:47:37;3.08;;;2.78;;
30466;SDS011;17258;52.560;13.046;2023-05-15T01:57:43;3.58;;;3.28;;
30466;SDS011;17258;52.560;13.046;2023-05-15T02:07:48;4.05;;;3.22;;
30466;SDS011;17258;52.560;13.046;2023-05-15T02:17:51;3.92;;;3.22;;
30466;SDS011;17258;52.560;13.046;2023-05-15T02:27:56;4.10;;;3.20;;
30466;SDS011;17258;52.560;13.046;2023-05-15T02:38:00;3.97;;;3.08;;
30466;SDS011;17258;52.560;13.046;2023-05-15T02:48:08;3.83;;;3.17;;
30466;SDS011;17258;52.560;13.046;2023-05-15T02:58:09;3.42;;;3.22;;
30466;SDS011;17258;52.560;13.046;2023-05-15T03:08:10;3.50;;;3.20;;
30466;SDS011;17258;52.560;13.046;2023-05-15T03:18:11;3.93;;;3.57;;
30466;SDS011;17258;52.560;13.046;2023-05-15T03:28:11;3.47;;;2.92;;
30466;SDS011;17258;52.560;13.046;2023-05-15T03:38:12;3.33;;;3.10;;
30466;SDS011;17258;52.560;13.046;2023-05-15T03:48:13;3.20;;;3.00;;
30466;SDS011;17258;52.560;13.046;2023-05-15T03:58:14;4.22;;;3.42;;
30466;SDS011;17258;52.560;13.046;2023-05-15T04:08:15;7.68;;;4.10;;
30466;SDS011;17258;52.560;13.046;2023-05-15T04:18:15;4.32;;;3.55;;
30466;SDS011;17258;52.560;13.046;2023-05-15T04:28:16;6.27;;;5.87;;
30466;SDS011;17258;52.560;13.046;2023-05-15T04:38:18;9.50;;;8.90;;
30466;SDS011;17258;52.560;13.046;2023-05-15T04:48:22;4.88;;;4.32;;
30466;SDS011;17258;52.560;13.046;2023-05-15T04:58:22;6.47;;;5.97;;
30466;SDS011;17258;52.560;13.046;2023-05-15T05:08:23;9.70;;;9.10;;
30466;SDS011;17258;52.560;13.046;2023-05-15T05:18:28;12.13;;;8.40;;
30466;SDS011;17258;52.560;13.046;2023-05-15T05:28:29;16.00;;;14.90;;
30466;SDS011;17258;52.560;13.046;2023-05-15T05:38:33;19.23;;;17.70;;
30466;SDS011;17258;52.560;13.046;2023-05-15T05:48:35;20.50;;;18.70;;
30466;SDS011;17258;52.560;13.046;2023-05-15T05:58:38;20.70;;;19.25;;
30466;SDS011;17258;52.560;13.046;2023-05-15T06:08:42;20.98;;;19.10;;
30466;SDS011;17258;52.560;13.046;2023-05-15T06:18:43;19.33;;;17.92;;
30466;SDS011;17258;52.560;13.046;2023-05-15T06:28:46;16.55;;;15.48;;
30466;SDS011;17258;52.560;13.046;2023-05-15T06:38:47;8.40;;;7.90;;
30466;SDS011;17258;52.560;13.046;2023-05-15T06:48:48;12.07;;;11.37;;
30466;SDS011;17258;52.560;13.046;2023-05-15T06:58:52;8.10;;;7.57;;
30466;SDS011;17258;52.560;13.046;2023-05-15T07:08:53;8.32;;;7.90;;
30466;SDS011;17258;52.560;13.046;2023-05-15T07:18:54;9.73;;;9.07;;
30466;SDS011;17258;52.560;13.046;2023-05-15T07:28:57;12.50;;;11.70;;
30466;SDS011;17258;52.560;13.046;2023-05-15T07:39:01;18.83;;;17.43;;
30466;SDS011;17258;52.560;13.046;2023-05-15T07:49:04;18.70;;;17.33;;
30466;SDS011;17258;52.560;13.046;2023-05-15T07:59:05;18.60;;;17.30;;
30466;SDS011;17258;52.560;13.046;2023-05-15T08:09:07;2.72;;;1.98;;
30466;SDS011;17258;52.560;13.046;2023-05-15T08:19:11;2.17;;;1.98;;
30466;SDS011;17258;52.560;13.046;2023-05-15T08:29:22;2.35;;;2.15;;
30466;SDS011;17258;52.560;13.046;2023-05-15T08:39:23;4.15;;;2.30;;
30466;SDS011;17258;52.560;13.046;2023-05-15T09:00:06;4.47;;;1.90;;
30466;SDS011;17258;52.560;13.046;2023-05-15T09:10:08;2.53;;;1.92;;
30466;SDS011;17258;52.560;13.046;2023-05-15T09:20:23;2.38;;;2.17;;
30466;SDS011;17258;52.560;13.046;2023-05-15T09:30:26;17.95;;;16.85;;
30466;SDS011;17258;52.560;13.046;2023-05-15T09:40:27;20.13;;;18.58;;
30466;SDS011;17258;52.560;13.046;2023-05-15T09:50:36;2.40;;;2.20;;
30466;SDS011;17258;52.560;13.046;2023-05-15T10:00:41;20.45;;;18.90;;
30466;SDS011;17258;52.560;13.046;2023-05-15T10:10:46;21.00;;;19.50;;
30466;SDS011;17258;52.560;13.046;2023-05-15T10:20:47;18.85;;;17.20;;
30466;SDS011;17258;52.560;13.046;2023-05-15T10:30:51;20.83;;;19.33;;
30466;SDS011;17258;52.560;13.046;2023-05-15T10:41:02;20.58;;;19.17;;
30466;SDS011;17258;52.560;13.046;2023-05-15T10:51:04;20.58;;;18.98;;
30466;SDS011;17258;52.560;13.046;2023-05-15T11:01:29;19.17;;;17.90;;
30466;SDS011;17258;52.560;13.046;2023-05-15T11:11:51;5.78;;;5.47;;
30466;SDS011;17258;52.560;13.046;2023-05-15T11:32:30;2.40;;;2.22;;
30466;SDS011;17258;52.560;13.046;2023-05-15T11:49:36;2.30;;;2.00;;
30466;SDS011;17258;52.560;13.046;2023-05-15T11:59:40;2.22;;;2.05;;
30466;SDS011;17258;52.560;13.046;2023-05-15T12:09:41;2.28;;;2.08;;
30466;SDS011;17258;52.560;13.046;2023-05-15T12:19:51;2.63;;;2.10;;
30466;SDS011;17258;52.560;13.046;2023-05-15T12:29:52;5.18;;;1.80;;
30466;SDS011;17258;52.560;13.046;2023-05-15T12:39:54;1.63;;;1.52;;
30466;SDS011;17258;52.560;13.046;2023-05-15T12:49:56;3.67;;;1.80;;
30466;SDS011;17258;52.560;13.046;2023-05-15T13:00:00;3.10;;;1.85;;
30466;SDS011;17258;52.560;13.046;2023-05-15T13:10:02;4.03;;;2.17;;
30466;SDS011;17258;52.560;13.046;2023-05-15T13:20:05;3.95;;;1.58;;
30466;SDS011;17258;52.560;13.046;2023-05-15T13:30:10;1.30;;;1.27;;
30466;SDS011;17258;52.560;13.046;2023-05-15T13:40:11;1.10;;;1.10;;
30466;SDS011;17258;52.560;13.046;2023-05-15T13:50:13;1.70;;;1.60;;
30466;SDS011;17258;52.560;13.046;2023-05-15T14:00:15;1.20;;;1.15;;
30466;SDS011;17258;52.560;13.046;2023-05-15T14:10:17;1.40;;;1.25;;
30466;SDS011;17258;52.560;13.046;2023-05-15T14:20:18;1.38;;;1.27;;
30466;SDS011;17258;52.560;13.046;2023-05-15T14:30:20;1.55;;;1.45;;
30466;SDS011;17258;52.560;13.046;2023-05-15T14:40:21;1.30;;;1.30;;
30466;SDS011;17258;52.560;13.046;2023-05-15T14:50:22;1.40;;;1.30;;
30466;SDS011;17258;52.560;13.046;2023-05-15T15:00:32;1.95;;;0.95;;
30466;SDS011;17258;52.560;13.046;2023-05-15T15:10:36;2.85;;;1.27;;
30466;SDS011;17258;52.560;13.046;2023-05-15T15:20:45;1.05;;;1.05;;
30466;SDS011;17258;52.560;13.046;2023-05-15T15:30:46;1.30;;;1.20;;
30466;SDS011;17258;52.560;13.046;2023-05-15T15:40:47;5.07;;;1.20;;
30466;SDS011;17258;52.560;13.046;2023-05-15T15:50:48;0.97;;;0.93;;
30466;SDS011;17258;52.560;13.046;2023-05-15T16:00:53;7.30;;;6.80;;
30466;SDS011;17258;52.560;13.046;2023-05-15T16:10:57;1.25;;;1.13;;
30466;SDS011;17258;52.560;13.046;2023-05-15T16:20:57;2.25;;;1.50;;
30466;SDS011;17258;52.560;13.046;2023-05-15T16:30:58;1.02;;;1.02;;
30466;SDS011;17258;52.560;13.046;2023-05-15T16:41:05;1.55;;;1.30;;
30466;SDS011;17258;52.560;13.046;2023-05-15T16:51:06;1.30;;;1.20;;
30466;SDS011;17258;52.560;13.046;2023-05-15T17:01:15;1.20;;;1.20;;
30466;SDS011;17258;52.560;13.046;2023-05-15T17:11:19;1.60;;;1.42;;
30466;SDS011;17258;52.560;13.046;2023-05-15T17:21:25;1.42;;;1.33;;
30466;SDS011;17258;52.560;13.046;2023-05-15T17:31:35;1.83;;;1.73;;
30466;SDS011;17258;52.560;13.046;2023-05-15T17:41:43;1.92;;;1.50;;
30466;SDS011;17258;52.560;13.046;2023-05-15T17:51:46;1.73;;;1.20;;
30466;SDS011;17258;52.560;13.046;2023-05-15T18:01:46;1.60;;;1.50;;
30466;SDS011;17258;52.560;13.046;2023-05-15T18:11:47;1.17;;;1.17;;
30466;SDS011;17258;52.560;13.046;2023-05-15T18:21:51;1.73;;;1.17;;
30466;SDS011;17258;52.560;13.046;2023-05-15T18:31:55;1.20;;;1.10;;
30466;SDS011;17258;52.560;13.046;2023-05-15T18:41:58;1.13;;;1.13;;
30466;SDS011;17258;52.560;13.046;2023-05-15T18:51:59;1.15;;;1.15;;
30466;SDS011;17258;52.560;13.046;2023-05-15T19:02:03;1.88;;;1.65;;
30466;SDS011;17258;52.560;13.046;2023-05-15T19:12:03;3.67;;;1.83;;
30466;SDS011;17258;52.560;13.046;2023-05-15T19:22:04;1.70;;;1.60;;
30466;SDS011;17258;52.560;13.046;2023-05-15T19:32:05;1.27;;;1.23;;
30466;SDS011;17258;52.560;13.046;2023-05-15T19:42:07;1.50;;;1.40;;
30466;SDS011;17258;52.560;13.046;2023-05-15T19:52:08;1.60;;;1.50;;
30466;SDS011;17258;52.560;13.046;2023-05-15T20:02:11;1.90;;;1.63;;
30466;SDS011;17258;52.560;13.046;2023-05-15T20:12:14;1.70;;;1.60;;
30466;SDS011;17258;52.560;13.046;2023-05-15T20:22:18;1.65;;;1.55;;
30466;SDS011;17258;52.560;13.046;2023-05-15T20:32:22;2.92;;;1.85;;
30466;SDS011;17258;52.560;13.046;2023-05-15T20:42:23;2.60;;;1.70;;
30466;SDS011;17258;52.560;13.046;2023-05-15T20:52:25;1.80;;;1.70;;
30466;SDS011;17258;52.560;13.046;2023-05-15T21:02:25;1.87;;;1.73;;
30466;SDS011;17258;52.560;13.046;2023-05-15T21:12:26;1.97;;;1.87;;
30466;SDS011;17258;52.560;13.046;2023-05-15T21:22:27;2.10;;;1.88;;
30466;SDS011;17258;52.560;13.046;2023-05-15T21:32:27;2.17;;;2.03;;
30466;SDS011;17258;52.560;13.046;2023-05-15T21:42:31;4.00;;;1.70;;
30466;SDS011;17258;52.560;13.046;2023-05-15T21:52:34;2.97;;;2.30;;
30466;SDS011;17258;52.560;13.046;2023-05-15T22:02:35;2.33;;;2.13;;
30466;SDS011;17258;52.560;13.046;2023-05-15T22:12:36;2.38;;;2.17;;
30466;SDS011;17258;52.560;13.046;2023-05-15T22:22:37;2.20;;;2.10;;
30466;SDS011;17258;52.560;13.046;2023-05-15T22:32:40;2.88;;;2.67;;
30466;SDS011;17258;52.560;13.046;2023-05-15T22:42:41;2.60;;;2.40;;
30466;SDS011;17258;52.560;13.046;2023-05-15T22:52:49;3.17;;;2.87;;
30466;SDS011;17258;52.560;13.046;2023-05-15T23:02:53;3.78;;;3.42;;
30466;SDS011;17258;52.560;13.046;2023-05-15T23:12:54;5.40;;;3.47;;
30466;SDS011;17258;52.560;13.046;2023-05-15T23:22:55;2.60;;;2.40;;
30466;SDS011;17258;52.560;13.046;2023-05-15T23:32:58;2.65;;;2.45;;
30466;SDS011;17258;52.560;13.046;2023-05-15T23:42:59;3.40;;;3.10;;
30466;SDS011;17258;52.560;13.046;2023-05-15T23:53:00;5.72;;;3.10;;
